Time;durP1;ratioP1;P1;durP2;ratioP2;P2;SDS_P1;SDS_P2;PMS_P1;PMS_P2;Temp;Humidity;BMP_temperature;BMP_pressure;BME280_temperature;BME280_humidity;BME280_pressure;Samples;Min_cycle;Max_cycle;Signal;HPM_P1;HPM_P2
2021/06/14 00:02:01;;;;;;;7.88;4.75;;;14.00;99.90;;;;;;5094052;28;20040;-65
2021/06/14 00:04:27;;;;;;;6.57;4.25;;;14.00;99.90;;;;;;5093832;28;20040;-65
2021/06/14 00:06:53;;;;;;;5.68;3.90;;;14.00;99.90;;;;;;5093209;28;20205;-65
2021/06/14 00:09:24;;;;;;;5.97;4.78;;;13.90;99.90;;;;;;5086849;28;20401;-65
2021/06/14 00:11:50;;;;;;;6.45;4.88;;;13.90;99.90;;;;;;5094169;28;20040;-66
2021/06/14 00:14:16;;;;;;;5.97;4.10;;;13.90;99.90;;;;;;5092488;28;20053;-65
2021/06/14 00:16:42;;;;;;;7.78;4.80;;;13.80;99.90;;;;;;5075554;28;20152;-66
2021/06/14 00:19:09;;;;;;;5.00;4.15;;;13.80;99.90;;;;;;5093863;28;20036;-65
2021/06/14 00:21:35;;;;;;;6.20;4.32;;;13.70;99.90;;;;;;5093604;28;20040;-65
2021/06/14 00:24:01;;;;;;;7.57;4.50;;;13.70;99.90;;;;;;5093917;28;20032;-66
2021/06/14 00:26:27;;;;;;;5.75;4.60;;;13.70;99.90;;;;;;5093609;28;20047;-65
2021/06/14 00:28:53;;;;;;;5.45;4.45;;;13.70;99.90;;;;;;5092578;28;20036;-65
2021/06/14 00:31:19;;;;;;;4.75;4.22;;;13.70;99.90;;;;;;5093432;28;20172;-65
2021/06/14 00:33:44;;;;;;;4.93;4.15;;;13.70;99.90;;;;;;5093718;28;20090;-65
2021/06/14 00:36:11;;;;;;;6.57;4.63;;;13.70;99.90;;;;;;5092919;28;20450;-65
2021/06/14 00:38:37;;;;;;;8.93;5.10;;;13.70;99.90;;;;;;5093653;28;20062;-65
2021/06/14 00:41:04;;;;;;;7.00;4.85;;;13.60;99.90;;;;;;5093074;28;20097;-65
2021/06/14 00:43:30;;;;;;;5.15;4.60;;;13.60;99.90;;;;;;5093584;28;20482;-65
2021/06/14 00:45:57;;;;;;;7.35;4.80;;;13.60;99.90;;;;;;5072442;28;20050;-65
2021/06/14 00:48:23;;;;;;;6.85;4.60;;;13.60;99.90;;;;;;5075297;28;20075;-65
2021/06/14 00:50:58;;;;;;;7.07;5.05;;;13.60;99.90;;;;;;5093101;28;20060;-65
2021/06/14 00:53:28;;;;;;;7.03;4.65;;;13.50;99.90;;;;;;5075212;28;20423;-65
2021/06/14 00:55:54;;;;;;;6.72;5.07;;;13.50;99.90;;;;;;5086314;28;20040;-65
2021/06/14 00:58:20;;;;;;;6.53;4.70;;;13.50;99.90;;;;;;5086935;28;20390;-65
2021/06/14 01:00:46;;;;;;;6.18;5.00;;;13.40;99.90;;;;;;5092265;28;20078;-66
2021/06/14 01:03:12;;;;;;;9.73;5.32;;;13.40;99.90;;;;;;5091268;28;20089;-65
2021/06/14 01:05:46;;;;;;;8.65;5.38;;;13.40;99.90;;;;;;5092311;28;20097;-66
2021/06/14 01:08:12;;;;;;;6.88;4.68;;;13.40;99.90;;;;;;5079936;28;20050;-66
2021/06/14 01:10:39;;;;;;;7.93;5.28;;;13.40;99.90;;;;;;5086575;28;20047;-65
2021/06/14 01:13:36;;;;;;;8.80;5.38;;;13.40;99.90;;;;;;5091977;28;20033;-66
2021/06/14 01:16:31;;;;;;;7.05;5.20;;;13.30;99.90;;;;;;5073841;28;20040;-65
2021/06/14 01:19:32;;;;;;;5.93;5.15;;;13.40;99.90;;;;;;5090763;28;20510;-65
2021/06/14 01:22:29;;;;;;;11.45;5.53;;;13.30;99.90;;;;;;5072468;28;20466;-65
2021/06/14 01:25:12;;;;;;;8.55;5.72;;;13.30;99.90;;;;;;5077947;28;20067;-66
2021/06/14 01:27:38;;;;;;;7.32;5.22;;;13.30;99.90;;;;;;5072376;28;20127;-66
2021/06/14 01:30:15;;;;;;;8.93;6.00;;;13.30;99.90;;;;;;5083073;28;20114;-66
2021/06/14 01:32:42;;;;;;;7.82;5.95;;;13.20;99.90;;;;;;5092558;28;20040;-66
2021/06/14 01:35:10;;;;;;;9.57;6.47;;;13.30;99.90;;;;;;5092256;28;20042;-66
2021/06/14 01:37:44;;;;;;;8.93;5.90;;;13.30;99.90;;;;;;5090916;28;20040;-65
2021/06/14 01:40:11;;;;;;;9.70;5.85;;;13.20;99.90;;;;;;5092130;28;20052;-65
2021/06/14 01:42:38;;;;;;;10.45;5.80;;;13.20;99.90;;;;;;5092193;28;20043;-66
2021/06/14 01:45:05;;;;;;;6.97;5.75;;;13.20;99.90;;;;;;5091963;28;20090;-65
2021/06/14 01:47:31;;;;;;;8.07;5.90;;;13.20;99.90;;;;;;5092161;28;20044;-66
2021/06/14 01:49:58;;;;;;;9.38;5.93;;;13.20;99.90;;;;;;5092011;28;20724;-66
2021/06/14 01:52:24;;;;;;;10.70;5.97;;;13.10;99.90;;;;;;5090714;28;20040;-65
2021/06/14 01:54:52;;;;;;;8.32;5.72;;;13.10;99.90;;;;;;5091946;28;20045;-65
2021/06/14 01:57:18;;;;;;;7.95;6.00;;;13.10;99.90;;;;;;5091912;28;20040;-65
2021/06/14 01:59:46;;;;;;;8.00;6.00;;;13.10;99.90;;;;;;5091532;28;20044;-65
2021/06/14 02:02:14;;;;;;;9.13;5.97;;;13.10;99.90;;;;;;5091963;28;20032;-65
2021/06/14 02:04:46;;;;;;;9.70;6.30;;;13.10;99.90;;;;;;5095045;28;20515;-66
2021/06/14 02:07:13;;;;;;;9.50;6.10;;;13.00;99.90;;;;;;5090285;28;20169;-65
2021/06/14 02:09:40;;;;;;;11.00;6.35;;;13.10;99.90;;;;;;5081311;28;20045;-66
2021/06/14 02:12:08;;;;;;;10.07;6.20;;;13.10;99.90;;;;;;5071422;28;20036;-66
2021/06/14 02:14:37;;;;;;;9.82;6.75;;;13.00;99.90;;;;;;5076327;28;20048;-65
2021/06/14 02:17:07;;;;;;;8.65;6.68;;;13.00;99.90;;;;;;5091711;28;20044;-66
2021/06/14 02:19:36;;;;;;;8.73;6.25;;;13.10;99.90;;;;;;5091679;28;20085;-65
2021/06/14 02:22:03;;;;;;;7.72;6.05;;;13.00;99.90;;;;;;5091734;28;20036;-66
2021/06/14 02:24:28;;;;;;;10.15;6.82;;;13.00;99.90;;;;;;5089382;28;20362;-65
2021/06/14 02:26:54;;;;;;;9.18;6.55;;;13.00;99.90;;;;;;5091607;28;20046;-65
2021/06/14 02:29:20;;;;;;;9.23;6.63;;;13.00;99.90;;;;;;5089837;28;20036;-65
2021/06/14 02:31:46;;;;;;;8.07;6.22;;;12.90;99.90;;;;;;5091797;28;20068;-66
2021/06/14 02:34:11;;;;;;;8.85;6.50;;;12.90;99.90;;;;;;5091271;28;20059;-65
2021/06/14 02:36:38;;;;;;;9.80;6.63;;;12.90;99.90;;;;;;5091196;28;20081;-66
2021/06/14 02:39:14;;;;;;;9.40;6.45;;;12.90;99.90;;;;;;5072882;28;20040;-66
2021/06/14 02:41:42;;;;;;;9.02;6.10;;;13.00;99.90;;;;;;5070806;28;20145;-65
2021/06/14 02:44:08;;;;;;;8.98;6.30;;;12.90;99.90;;;;;;5094416;28;20036;-66
2021/06/14 02:46:38;;;;;;;10.95;6.22;;;12.90;99.90;;;;;;5072891;28;20094;-65
2021/06/14 02:49:04;;;;;;;10.80;6.43;;;12.90;99.90;;;;;;5091116;28;20508;-66
2021/06/14 02:51:35;;;;;;;8.73;6.80;;;12.90;99.90;;;;;;5089894;28;20112;-66
2021/06/14 02:54:05;;;;;;;7.85;5.82;;;12.80;99.90;;;;;;5089908;28;20048;-66
2021/06/14 02:56:36;;;;;;;7.50;5.82;;;12.80;99.90;;;;;;5090631;28;20039;-65
2021/06/14 02:59:04;;;;;;;8.15;6.03;;;12.80;99.90;;;;;;5090805;28;20040;-66
2021/06/14 03:01:31;;;;;;;7.00;5.95;;;12.80;99.90;;;;;;5089695;28;20033;-66
2021/06/14 03:03:58;;;;;;;8.55;5.43;;;12.80;99.90;;;;;;5090883;28;20107;-66
2021/06/14 03:06:27;;;;;;;8.05;5.78;;;12.80;99.90;;;;;;5090030;28;20040;-66
2021/06/14 03:08:53;;;;;;;9.25;5.47;;;12.80;99.90;;;;;;5089178;28;20036;-66
2021/06/14 03:11:23;;;;;;;9.93;5.80;;;12.80;99.90;;;;;;5088073;28;20493;-65
2021/06/14 03:13:49;;;;;;;11.05;5.97;;;12.80;99.90;;;;;;5090804;28;20042;-65
2021/06/14 03:16:17;;;;;;;9.43;5.78;;;12.80;99.90;;;;;;5072081;28;20119;-66
2021/06/14 03:18:43;;;;;;;12.25;5.53;;;12.80;99.90;;;;;;5088711;28;20564;-66
2021/06/14 03:21:10;;;;;;;7.40;5.60;;;12.80;99.90;;;;;;5090453;28;20089;-66
2021/06/14 03:23:36;;;;;;;8.38;5.65;;;12.80;99.90;;;;;;5090605;28;20040;-66
2021/06/14 03:26:04;;;;;;;6.88;5.32;;;12.80;99.90;;;;;;5089221;28;20043;-66
2021/06/14 03:28:31;;;;;;;9.85;5.50;;;12.80;99.90;;;;;;5072675;28;20044;-66
2021/06/14 03:30:57;;;;;;;8.68;5.75;;;12.80;99.90;;;;;;5090739;28;20042;-65
2021/06/14 03:33:23;;;;;;;8.35;5.88;;;12.80;99.90;;;;;;5089284;28;20135;-66
2021/06/14 03:35:51;;;;;;;11.70;5.88;;;12.80;99.90;;;;;;5092347;28;20062;-66
2021/06/14 03:38:17;;;;;;;7.45;5.13;;;12.80;99.90;;;;;;5094538;28;20032;-66
2021/06/14 03:40:43;;;;;;;10.23;5.88;;;12.80;99.90;;;;;;5116397;22;20622;-66
2021/06/14 03:43:08;;;;;;;8.57;6.03;;;12.80;99.90;;;;;;5093646;28;20051;-66
2021/06/14 03:45:35;;;;;;;8.98;5.70;;;12.80;99.90;;;;;;5094723;28;20036;-66
2021/06/14 03:48:01;;;;;;;7.93;5.47;;;12.80;99.90;;;;;;5094923;28;20071;-66
2021/06/14 03:50:26;;;;;;;8.32;6.15;;;12.80;99.90;;;;;;5094490;28;20071;-66
2021/06/14 03:52:52;;;;;;;11.23;6.03;;;12.80;99.90;;;;;;5076533;28;20398;-66
2021/06/14 03:55:18;;;;;;;7.03;5.70;;;12.80;99.90;;;;;;5089987;28;20086;-66
2021/06/14 03:57:44;;;;;;;10.10;6.22;;;12.90;99.90;;;;;;5092302;28;20528;-66
2021/06/14 04:00:12;;;;;;;9.90;5.82;;;12.90;99.90;;;;;;5094515;28;20068;-66
2021/06/14 04:02:38;;;;;;;8.38;6.32;;;12.90;99.90;;;;;;5094659;28;20077;-66
2021/06/14 04:05:06;;;;;;;9.05;5.57;;;13.00;99.90;;;;;;5094428;28;20036;-66
2021/06/14 04:07:32;;;;;;;9.57;6.63;;;13.00;99.90;;;;;;5094190;28;20119;-66
2021/06/14 04:09:59;;;;;;;7.72;6.07;;;13.00;99.90;;;;;;5094311;28;20028;-66
2021/06/14 04:12:29;;;;;;;9.32;6.53;;;13.10;99.90;;;;;;5069401;28;20036;-66
2021/06/14 04:14:55;;;;;;;10.40;7.00;;;13.20;99.90;;;;;;5093161;28;20047;-66
2021/06/14 04:17:21;;;;;;;8.98;7.10;;;13.20;99.90;;;;;;5093845;28;20024;-66
2021/06/14 04:19:47;;;;;;;12.32;6.80;;;13.20;99.90;;;;;;5076216;28;20043;-66
2021/06/14 04:22:13;;;;;;;11.98;7.55;;;13.30;99.90;;;;;;5094237;28;20105;-66
2021/06/14 04:24:39;;;;;;;9.40;7.15;;;13.30;99.90;;;;;;5094172;28;20741;-66
2021/06/14 04:27:05;;;;;;;10.73;6.82;;;13.30;99.90;;;;;;5094043;28;20115;-66
2021/06/14 04:29:31;;;;;;;10.15;6.82;;;13.40;99.90;;;;;;5092536;28;20036;-66
2021/06/14 04:31:57;;;;;;;11.38;7.22;;;13.50;99.90;;;;;;5094209;28;20089;-66
2021/06/14 04:34:23;;;;;;;10.35;7.45;;;13.50;99.90;;;;;;5093239;28;20036;-66
2021/06/14 04:36:49;;;;;;;17.38;8.82;;;13.60;99.90;;;;;;5074582;28;20043;-66
2021/06/14 04:39:15;;;;;;;15.43;8.75;;;13.60;99.90;;;;;;5093562;28;20127;-66
2021/06/14 04:41:41;;;;;;;14.10;9.48;;;13.60;99.90;;;;;;5093147;28;20388;-66
2021/06/14 04:44:07;;;;;;;11.73;8.30;;;13.70;99.90;;;;;;5074629;28;20039;-66
2021/06/14 04:46:33;;;;;;;12.70;8.60;;;13.80;99.90;;;;;;5093145;28;20032;-66
2021/06/14 04:48:58;;;;;;;11.63;8.90;;;13.90;99.90;;;;;;5093685;28;20032;-66
2021/06/14 04:51:24;;;;;;;15.40;9.60;;;13.90;99.90;;;;;;5091995;28;20052;-66
2021/06/14 04:53:50;;;;;;;16.52;9.25;;;14.00;99.90;;;;;;5075393;28;20089;-66
2021/06/14 04:56:16;;;;;;;16.23;9.85;;;14.10;99.90;;;;;;5092016;28;20081;-66
2021/06/14 04:58:42;;;;;;;12.10;8.88;;;14.20;99.90;;;;;;5093166;28;20367;-66
2021/06/14 05:01:09;;;;;;;12.65;10.05;;;14.30;99.90;;;;;;5074101;28;20043;-66
2021/06/14 05:03:35;;;;;;;13.40;10.32;;;14.40;99.90;;;;;;5093272;28;20478;-66
2021/06/14 05:06:01;;;;;;;12.75;9.52;;;14.50;99.90;;;;;;5092680;28;20044;-66
2021/06/14 05:08:27;;;;;;;15.32;10.23;;;14.60;99.90;;;;;;5093478;28;20123;-66
2021/06/14 05:10:53;;;;;;;14.43;9.70;;;14.70;99.90;;;;;;5088189;28;20538;-66
2021/06/14 05:13:19;;;;;;;12.80;9.25;;;14.80;99.90;;;;;;5078262;28;20358;-66
2021/06/14 05:15:45;;;;;;;13.45;9.60;;;14.90;99.90;;;;;;5093163;28;20036;-66
2021/06/14 05:18:11;;;;;;;11.75;9.80;;;15.00;99.90;;;;;;5091626;28;20040;-66
2021/06/14 05:20:37;;;;;;;12.13;9.55;;;15.10;99.90;;;;;;5074993;28;20166;-66
2021/06/14 05:23:03;;;;;;;11.60;9.52;;;15.20;99.90;;;;;;5092496;28;20051;-66
2021/06/14 05:25:31;;;;;;;10.98;8.77;;;15.30;99.90;;;;;;5092718;28;20036;-66
2021/06/14 05:27:57;;;;;;;13.30;8.75;;;15.40;99.90;;;;;;5093037;28;20074;-67
2021/06/14 05:30:23;;;;;;;10.32;7.93;;;15.60;99.90;;;;;;5093000;28;20040;-67
2021/06/14 05:32:49;;;;;;;11.07;8.48;;;15.60;99.90;;;;;;5092733;28;20035;-66
2021/06/14 05:35:15;;;;;;;11.68;8.35;;;15.80;99.90;;;;;;5093253;28;20039;-66
2021/06/14 05:37:40;;;;;;;12.00;9.05;;;15.90;99.90;;;;;;5091386;28;20036;-66
2021/06/14 05:40:08;;;;;;;12.13;8.60;;;16.00;99.90;;;;;;5074320;28;20055;-66
2021/06/14 05:42:34;;;;;;;10.43;8.02;;;16.10;99.90;;;;;;5091648;28;20079;-66
2021/06/14 05:45:00;;;;;;;10.35;7.65;;;16.30;99.90;;;;;;5103986;28;20040;-66
2021/06/14 05:47:26;;;;;;;12.30;7.70;;;16.70;99.90;;;;;;5092202;28;20044;-66
2021/06/14 05:49:52;;;;;;;11.15;6.78;;;18.30;99.60;;;;;;5092299;28;20046;-66
2021/06/14 05:52:18;;;;;;;7.07;5.72;;;20.30;97.50;;;;;;5089102;28;20035;-67
2021/06/14 05:54:44;;;;;;;8.40;6.03;;;22.00;93.80;;;;;;5091165;28;20040;-65
2021/06/14 05:57:10;;;;;;;8.43;5.25;;;23.50;91.40;;;;;;5091338;28;20062;-65
2021/06/14 05:59:36;;;;;;;8.63;5.45;;;24.60;86.30;;;;;;5091543;28;20040;-65
2021/06/14 06:02:07;;;;;;;6.40;5.32;;;25.70;81.90;;;;;;5077757;28;20045;-65
2021/06/14 06:04:33;;;;;;;9.73;5.10;;;26.60;70.50;;;;;;5080374;28;20537;-65
2021/06/14 06:07:00;;;;;;;6.35;4.15;;;27.40;71.00;;;;;;5090979;28;20477;-65
2021/06/14 06:09:26;;;;;;;7.28;4.50;;;28.00;64.30;;;;;;5091849;28;20435;-65
2021/06/14 06:11:51;;;;;;;7.63;4.38;;;28.70;62.70;;;;;;5088557;28;20036;-65
2021/06/14 06:14:17;;;;;;;6.47;3.92;;;29.40;60.90;;;;;;5089020;28;20369;-65
2021/06/14 06:16:43;;;;;;;6.13;4.63;;;29.80;59.80;;;;;;5090847;28;20084;-65
2021/06/14 06:19:09;;;;;;;5.45;4.32;;;30.40;56.70;;;;;;5091742;28;20040;-65
2021/06/14 06:21:35;;;;;;;5.88;4.20;;;30.20;49.30;;;;;;5085940;28;20039;-68
2021/06/14 06:24:02;;;;;;;5.63;3.80;;;30.90;54.80;;;;;;5082418;28;20089;-66
2021/06/14 06:26:27;;;;;;;5.38;4.00;;;31.30;52.30;;;;;;5090155;28;20035;-66
2021/06/14 06:28:53;;;;;;;7.80;3.92;;;31.50;48.50;;;;;;5090446;28;20036;-65
2021/06/14 06:31:19;;;;;;;7.28;4.47;;;31.50;49.10;;;;;;5090717;28;20032;-65
2021/06/14 06:33:44;;;;;;;7.07;4.03;;;31.70;46.80;;;;;;5091137;28;20093;-65
2021/06/14 06:36:11;;;;;;;5.25;3.97;;;31.80;45.10;;;;;;5089935;28;20880;-65
2021/06/14 06:38:37;;;;;;;6.30;3.80;;;32.20;44.60;;;;;;5090148;28;20039;-65
2021/06/14 06:41:04;;;;;;;5.20;3.72;;;32.60;45.50;;;;;;5049948;28;20134;-65
2021/06/14 06:43:30;;;;;;;6.55;4.00;;;32.50;45.20;;;;;;5039641;28;20041;-65
2021/06/14 06:45:55;;;;;;;7.40;4.53;;;32.80;44.20;;;;;;5049327;28;20582;-67
2021/06/14 06:48:21;;;;;;;10.13;4.68;;;32.80;43.10;;;;;;5048038;28;20045;-65
2021/06/14 06:50:47;;;;;;;7.40;4.30;;;33.00;42.80;;;;;;5046239;28;20052;-66
2021/06/14 06:53:12;;;;;;;7.28;3.92;;;33.30;42.00;;;;;;5050396;28;20041;-65
2021/06/14 06:55:38;;;;;;;7.03;4.30;;;33.00;40.00;;;;;;5044988;28;20045;-66
2021/06/14 06:58:04;;;;;;;5.97;4.28;;;33.10;41.20;;;;;;5049761;28;20041;-66
2021/06/14 07:00:30;;;;;;;6.80;3.97;;;32.80;40.10;;;;;;5049761;28;20506;-66
2021/06/14 07:02:56;;;;;;;6.68;3.88;;;33.10;40.70;;;;;;5045851;28;23917;-65
2021/06/14 07:05:22;;;;;;;6.57;4.80;;;33.00;40.60;;;;;;5045675;28;20085;-66
2021/06/14 07:07:48;;;;;;;5.47;4.10;;;33.60;40.50;;;;;;5048976;28;20051;-67
2021/06/14 07:10:14;;;;;;;6.78;3.85;;;33.40;39.30;;;;;;5043512;28;20029;-67
2021/06/14 07:12:40;;;;;;;7.93;4.07;;;33.60;39.30;;;;;;5034531;28;20040;-67
2021/06/14 07:15:11;;;;;;;8.82;4.20;;;33.70;40.20;;;;;;5050304;28;20045;-67
2021/06/14 07:17:39;;;;;;;4.63;3.88;;;33.70;40.80;;;;;;5055004;28;20044;-67
2021/06/14 07:20:06;;;;;;;5.20;3.97;;;33.80;40.70;;;;;;5054677;28;20066;-66
2021/06/14 07:22:32;;;;;;;5.30;4.13;;;33.90;40.00;;;;;;5052913;28;20055;-67
2021/06/14 07:24:58;;;;;;;5.22;4.00;;;33.90;39.20;;;;;;5043342;28;20498;-67
2021/06/14 07:27:24;;;;;;;6.20;3.88;;;34.10;39.10;;;;;;5042004;28;20103;-66
2021/06/14 07:29:49;;;;;;;9.98;4.05;;;34.20;39.30;;;;;;5046628;28;20033;-66
2021/06/14 07:32:15;;;;;;;6.30;3.58;;;34.00;37.10;;;;;;5052892;28;20048;-67
2021/06/14 07:34:41;;;;;;;5.53;4.18;;;33.90;38.50;;;;;;5051435;28;20032;-66
2021/06/14 07:37:06;;;;;;;5.93;3.70;;;33.70;38.00;;;;;;5052804;28;20122;-66
2021/06/14 07:39:33;;;;;;;5.43;3.88;;;33.40;36.20;;;;;;5055302;28;20502;-67
2021/06/14 07:41:59;;;;;;;7.80;4.43;;;33.50;36.40;;;;;;5067368;28;20036;-66
2021/06/14 07:44:24;;;;;;;6.13;3.85;;;33.30;37.30;;;;;;5067126;28;20048;-66
2021/06/14 07:46:50;;;;;;;6.32;3.90;;;33.50;38.30;;;;;;5070797;28;20036;-66
2021/06/14 07:49:15;;;;;;;7.13;3.88;;;33.60;37.80;;;;;;5071909;28;20041;-66
2021/06/14 07:51:41;;;;;;;6.43;3.97;;;33.80;38.20;;;;;;5071802;28;20032;-66
2021/06/14 07:54:07;;;;;;;5.65;3.78;;;34.00;37.70;;;;;;5072960;28;20063;-66
2021/06/14 07:56:33;;;;;;;5.90;3.60;;;34.00;36.20;;;;;;5073666;28;20410;-67
2021/06/14 07:58:59;;;;;;;5.95;3.80;;;34.20;36.90;;;;;;5071766;28;20122;-67
2021/06/14 08:01:25;;;;;;;7.18;4.30;;;33.70;36.30;;;;;;5071490;28;20465;-67
2021/06/14 08:03:51;;;;;;;6.28;3.58;;;33.30;35.90;;;;;;5065378;28;20417;-66
2021/06/14 08:06:16;;;;;;;4.85;3.60;;;33.40;37.30;;;;;;5071309;28;20044;-66
2021/06/14 08:08:42;;;;;;;6.57;3.63;;;33.40;36.90;;;;;;5071970;28;20064;-66
2021/06/14 08:11:09;;;;;;;6.32;3.60;;;32.70;37.80;;;;;;5072313;28;21662;-66
2021/06/14 08:13:35;;;;;;;6.38;3.83;;;32.10;38.50;;;;;;5066948;28;20036;-66
2021/06/14 08:16:00;;;;;;;7.43;3.97;;;31.30;39.50;;;;;;5070361;28;20051;-66
2021/06/14 08:18:41;;;;;;;18.33;4.65;;;30.50;40.90;;;;;;5066882;28;20056;-66
2021/06/14 08:21:18;;;;;;;6.53;3.85;;;29.90;41.90;;;;;;5061717;28;20040;-66
2021/06/14 08:26:48;;;;;;;7.93;4.15;;;28.80;43.30;;;;;;5002222;28;20549;-66
2021/06/14 08:29:15;;;;;;;6.75;4.05;;;28.40;44.70;;;;;;5011342;28;20086;-65
2021/06/14 08:31:41;;;;;;;4.65;3.17;;;28.00;45.80;;;;;;5040167;28;20050;-66
2021/06/14 08:34:10;;;;;;;6.93;3.90;;;27.80;44.80;;;;;;5072212;28;20041;-66
2021/06/14 08:36:36;;;;;;;4.95;3.60;;;27.60;45.90;;;;;;5073517;28;20084;-66
2021/06/14 08:39:04;;;;;;;6.80;3.60;;;27.30;46.40;;;;;;5075658;28;20083;-66
2021/06/14 08:41:30;;;;;;;6.25;3.95;;;27.20;46.30;;;;;;5092216;28;20043;-66
2021/06/14 08:43:58;;;;;;;5.07;3.47;;;26.90;46.50;;;;;;5104476;28;20401;-66
2021/06/14 08:46:25;;;;;;;7.32;3.80;;;26.70;47.70;;;;;;5086150;28;20038;-66
2021/06/14 08:48:51;;;;;;;7.85;4.18;;;26.60;46.80;;;;;;5087514;28;20040;-66
2021/06/14 08:51:17;;;;;;;5.63;3.67;;;26.40;45.50;;;;;;5093444;28;20051;-66
2021/06/14 08:53:43;;;;;;;7.28;3.70;;;26.30;46.80;;;;;;5083462;28;20032;-66
2021/06/14 08:56:08;;;;;;;5.03;3.90;;;26.20;47.60;;;;;;5054584;28;20047;-66
2021/06/14 08:58:34;;;;;;;6.18;3.50;;;26.10;46.30;;;;;;5076819;28;20090;-66
2021/06/14 09:01:02;;;;;;;7.63;4.05;;;25.90;47.60;;;;;;5086995;28;20046;-66
2021/06/14 09:03:28;;;;;;;5.70;3.80;;;25.90;49.20;;;;;;5072959;28;20036;-66
2021/06/14 09:05:56;;;;;;;8.05;3.97;;;25.70;48.20;;;;;;5087921;28;20111;-66
2021/06/14 09:08:24;;;;;;;5.35;3.53;;;25.70;48.70;;;;;;5093363;28;20051;-65
2021/06/14 09:10:52;;;;;;;6.25;4.20;;;25.80;48.20;;;;;;5093132;28;20116;-65
2021/06/14 09:13:25;;;;;;;5.30;3.47;;;25.70;47.60;;;;;;5088613;28;20036;-66
2021/06/14 09:16:02;;;;;;;6.82;4.00;;;25.70;48.80;;;;;;5063066;28;20028;-66
2021/06/14 09:18:28;;;;;;;8.77;4.32;;;25.70;49.60;;;;;;5080916;28;20047;-66
2021/06/14 09:20:56;;;;;;;6.68;4.10;;;25.80;49.50;;;;;;5092835;28;20093;-65
2021/06/14 09:23:23;;;;;;;6.38;4.10;;;25.90;49.50;;;;;;5092911;28;20080;-66
2021/06/14 09:25:50;;;;;;;6.40;4.10;;;25.90;48.20;;;;;;5091687;28;20883;-66
2021/06/14 09:28:16;;;;;;;7.18;3.42;;;25.90;50.20;;;;;;5093005;28;20485;-66
2021/06/14 09:30:42;;;;;;;6.13;3.90;;;26.00;50.20;;;;;;5073301;28;20032;-66
2021/06/14 09:33:22;;;;;;;7.43;3.83;;;26.00;49.40;;;;;;5088394;28;20060;-66
2021/06/14 09:35:51;;;;;;;7.03;4.10;;;26.10;50.40;;;;;;5091963;28;20812;-66
2021/06/14 09:38:19;;;;;;;7.47;4.43;;;26.20;50.30;;;;;;5090665;28;20047;-66
2021/06/14 09:40:50;;;;;;;7.43;4.20;;;26.30;49.00;;;;;;5086209;28;20471;-66
2021/06/14 09:43:37;;;;;;;6.22;4.00;;;26.20;48.70;;;;;;5092284;28;20044;-64
2021/06/14 09:46:06;;;;;;;7.60;4.07;;;26.20;49.10;;;;;;5092505;28;20044;-65
2021/06/14 09:48:36;;;;;;;9.90;4.10;;;26.30;49.70;;;;;;5075999;28;20067;-65
2021/06/14 09:51:06;;;;;;;6.00;3.78;;;26.30;50.60;;;;;;5092349;28;20043;-65
2021/06/14 09:53:40;;;;;;;7.78;4.13;;;26.40;49.40;;;;;;5091142;28;20098;-65
2021/06/14 09:56:14;;;;;;;6.28;3.95;;;26.50;48.70;;;;;;5088815;28;20063;-65
2021/06/14 09:58:41;;;;;;;9.20;4.60;;;26.40;47.50;;;;;;5102406;28;20162;-65
2021/06/14 10:01:07;;;;;;;6.03;4.25;;;26.30;46.50;;;;;;5091884;28;20040;-65
2021/06/14 10:03:44;;;;;;;6.88;3.72;;;26.30;48.20;;;;;;5088629;28;20058;-65
2021/06/14 10:06:11;;;;;;;8.07;4.28;;;26.40;48.70;;;;;;5089815;28;20070;-65
2021/06/14 10:08:37;;;;;;;5.82;3.70;;;26.50;48.80;;;;;;5071363;28;20044;-65
2021/06/14 10:11:04;;;;;;;6.68;3.92;;;26.60;50.30;;;;;;5092305;28;20040;-65
2021/06/14 10:13:31;;;;;;;7.50;4.30;;;26.60;48.90;;;;;;5091859;28;20075;-65
2021/06/14 10:16:02;;;;;;;6.38;4.18;;;26.70;47.40;;;;;;5091923;28;20120;-66
2021/06/14 10:18:42;;;;;;;6.72;3.92;;;26.70;48.60;;;;;;5089147;28;20046;-66
2021/06/14 10:21:21;;;;;;;8.13;4.30;;;26.70;48.60;;;;;;5086485;28;20032;-67
2021/06/14 10:23:49;;;;;;;6.35;4.25;;;26.70;48.70;;;;;;5090416;28;20676;-66
2021/06/14 10:26:15;;;;;;;9.02;4.43;;;26.80;47.80;;;;;;5089976;28;20461;-66
2021/06/14 10:28:41;;;;;;;8.98;3.75;;;26.70;45.00;;;;;;5091326;28;20089;-66
2021/06/14 10:31:09;;;;;;;7.05;3.95;;;26.90;47.80;;;;;;5090868;28;20039;-66
2021/06/14 10:33:36;;;;;;;6.03;3.47;;;26.90;46.90;;;;;;5091676;28;20405;-66
2021/06/14 10:36:02;;;;;;;8.77;3.88;;;27.10;48.60;;;;;;5087217;28;20666;-65
2021/06/14 10:38:31;;;;;;;8.10;4.30;;;27.10;48.30;;;;;;5074079;28;20044;-63
2021/06/14 10:40:59;;;;;;;5.82;4.18;;;27.10;49.10;;;;;;5090020;28;20051;-67
2021/06/14 10:43:26;;;;;;;7.45;4.05;;;27.20;48.10;;;;;;5076546;28;20071;-67
2021/06/14 10:45:54;;;;;;;8.10;3.88;;;27.30;48.10;;;;;;5075493;28;20040;-66
2021/06/14 10:48:26;;;;;;;6.57;3.67;;;27.40;48.80;;;;;;5090771;28;20039;-65
2021/06/14 10:50:52;;;;;;;7.32;3.88;;;27.40;47.30;;;;;;5090623;28;20040;-65
2021/06/14 10:53:29;;;;;;;9.15;4.15;;;27.30;48.20;;;;;;5084223;28;20083;-64
2021/06/14 10:55:56;;;;;;;4.70;3.80;;;27.30;45.60;;;;;;5081374;28;20033;-65
2021/06/14 10:58:22;;;;;;;7.30;4.07;;;27.50;48.30;;;;;;5072373;28;20052;-65
2021/06/14 11:01:03;;;;;;;4.50;3.72;;;27.40;44.90;;;;;;5090267;28;20111;-65
2021/06/14 11:03:46;;;;;;;6.70;4.07;;;27.50;47.60;;;;;;5090914;28;20039;-65
2021/06/14 11:06:29;;;;;;;9.20;4.32;;;27.40;46.30;;;;;;5090037;28;20036;-65
2021/06/14 11:09:06;;;;;;;7.43;4.43;;;27.50;47.10;;;;;;5090340;28;20043;-65
2021/06/14 11:11:50;;;;;;;10.20;3.95;;;27.50;48.40;;;;;;5090937;28;20097;-64
2021/06/14 11:14:44;;;;;;;7.10;4.00;;;27.50;48.30;;;;;;5089192;28;20031;-65
2021/06/14 11:17:26;;;;;;;7.25;3.88;;;27.60;46.50;;;;;;5089489;28;20043;-67
2021/06/14 11:20:04;;;;;;;;;;;27.60;47.50;;;;;;5087788;28;20040;-67
2021/06/14 11:22:36;;;;;;;6.95;4.43;;;27.60;45.60;;;;;;5068894;28;19919;-68
2021/06/14 11:25:15;;;;;;;6.22;3.42;;;27.70;47.60;;;;;;5073186;28;20036;-68
2021/06/14 11:27:40;;;;;;;7.45;3.65;;;27.60;47.30;;;;;;5088154;28;20115;-69
2021/06/14 11:30:22;;;;;;;6.88;3.78;;;27.80;48.50;;;;;;5087700;28;20781;-67
2021/06/14 11:32:48;;;;;;;5.90;3.50;;;28.00;47.10;;;;;;5089144;28;20160;-69
2021/06/14 11:35:14;;;;;;;8.15;3.85;;;28.10;48.60;;;;;;5089898;28;20123;-68
2021/06/14 11:37:43;;;;;;;7.53;4.50;;;28.10;48.70;;;;;;5069479;28;20040;-68
2021/06/14 11:40:11;;;;;;;5.82;3.40;;;28.00;47.40;;;;;;5089125;28;20737;-67
2021/06/14 11:42:43;;;;;;;4.82;3.50;;;27.80;46.60;;;;;;5079583;28;20046;-67
2021/06/14 11:45:21;;;;;;;7.00;3.30;;;27.60;44.60;;;;;;5091405;28;20733;-65
2021/06/14 11:47:46;;;;;;;7.63;3.53;;;27.70;47.90;;;;;;5087134;28;20031;-65
2021/06/14 11:50:12;;;;;;;6.47;3.70;;;27.80;48.00;;;;;;5071911;28;20036;-65
2021/06/14 11:52:38;;;;;;;4.80;3.45;;;27.60;43.70;;;;;;5088822;28;20123;-65
2021/06/14 11:55:10;;;;;;;7.45;3.67;;;27.90;47.10;;;;;;5089425;28;20067;-65
2021/06/14 11:57:43;;;;;;;6.75;3.28;;;27.70;45.70;;;;;;5074546;28;20400;-65
2021/06/14 12:00:12;;;;;;;6.80;3.35;;;27.70;48.00;;;;;;5093547;28;20645;-65
2021/06/14 12:02:38;;;;;;;4.38;3.10;;;27.80;46.90;;;;;;5093343;28;20036;-66
2021/06/14 12:05:06;;;;;;;4.22;3.15;;;28.00;48.70;;;;;;5093735;28;20036;-66
2021/06/14 12:07:34;;;;;;;6.78;3.60;;;28.00;48.30;;;;;;5088407;28;20089;-66
2021/06/14 12:10:03;;;;;;;5.05;3.10;;;28.00;47.30;;;;;;5093474;28;20097;-66
2021/06/14 12:12:29;;;;;;;7.15;3.35;;;28.00;47.10;;;;;;5092004;28;20035;-66
2021/06/14 12:14:56;;;;;;;5.10;3.20;;;28.00;47.60;;;;;;5091522;28;20714;-66
2021/06/14 12:17:31;;;;;;;7.65;3.38;;;28.00;48.30;;;;;;5093575;28;20040;-65
2021/06/14 12:19:57;;;;;;;6.57;3.28;;;28.00;47.00;;;;;;5091332;28;20489;-66
2021/06/14 12:22:24;;;;;;;4.82;3.55;;;28.00;48.00;;;;;;5090427;28;20055;-66
2021/06/14 12:24:50;;;;;;;4.97;3.85;;;28.00;47.30;;;;;;5093643;28;20423;-66
2021/06/14 12:27:18;;;;;;;6.88;4.40;;;27.90;47.90;;;;;;5088733;28;20040;-66
2021/06/14 12:29:44;;;;;;;7.90;4.20;;;28.00;46.70;;;;;;5086535;28;20107;-65
2021/06/14 12:32:16;;;;;;;6.85;3.95;;;28.10;48.40;;;;;;5085229;28;20044;-65
2021/06/14 12:34:42;;;;;;;;;;;28.10;47.10;;;;;;5091661;28;20040;-65
2021/06/14 12:37:18;;;;;;;6.80;4.50;;;28.10;46.10;;;;;;5091034;28;20323;-65
2021/06/14 12:40:01;;;;;;;6.60;3.95;;;27.90;47.80;;;;;;5089774;28;20065;-65
2021/06/14 12:42:27;;;;;;;6.60;4.57;;;28.00;49.30;;;;;;5092349;28;20043;-64
2021/06/14 12:44:58;;;;;;;8.13;4.50;;;28.20;48.90;;;;;;5087621;28;20473;-65
2021/06/14 12:47:25;;;;;;;;;;;28.30;48.80;;;;;;5082737;28;20041;-65
2021/06/14 12:49:52;;;;;;;7.68;5.13;;;28.30;46.80;;;;;;5092299;28;19923;-65
2021/06/14 12:52:19;;;;;;;8.38;4.88;;;28.40;48.90;;;;;;5092484;28;20563;-65
2021/06/14 12:54:46;;;;;;;9.02;5.10;;;28.40;48.50;;;;;;5088030;28;20108;-65